Weather at Ardrossan Airport

Public forecast

Using degrees Celsius for public forecast. Weather courtesy of forecast.io.

Closest aviation weather report (METAR) to Ardrossan Airport

Closest report is Adelaide International Airport, 43.6 nm (80.7 km) SE. Retrieved 2021/06/25 13:00 UTC (22 minutes ago):

YPAD 251300Z 20007KT 9999 FEW010 SCT037 12/10 Q1020

Closest aviation forecast (TAF) to Ardrossan Airport

Closest forecast is Adelaide International Airport, 43.6 nm (80.7 km) SE. Retrieved 2021/06/25 13:06 UTC (16 minutes ago):

TAF YPAD 251303Z 2513/2618 21010KT 9999 -SHRA SCT010 BKN025 FM251500 23008KT 9999 -SHRA SCT015 BKN025 FM252000 23005KT 9999 NSW SCT030 FM260000 26008KT 9999 BKN030 FM260300 29012KT 9999 SCT030 FM261200 31008KT 9999 SCT020 BKN030 INTER 2513/2515 4000 SHRA BKN012 BKN020